Time;durP1;ratioP1;P1;durP2;ratioP2;P2;SDS_P1;SDS_P2;PMS_P1;PMS_P2;Temp;Humidity;BMP_temperature;BMP_pressure;BME280_temperature;BME280_humidity;BME280_pressure;Samples;Min_cycle;Max_cycle;Signal;HPM_P1;HPM_P2
2021/05/09 00:01:50;;;;;;;30.17;12.43;;;3.40;99.90;;;;;;4430199;28;657999;-69
2021/05/09 00:04:38;;;;;;;34.93;13.43;;;3.40;99.90;;;;;;4406233;28;658019;-69
2021/05/09 00:07:25;;;;;;;32.37;13.13;;;3.40;99.90;;;;;;4431804;28;657218;-69
2021/05/09 00:10:14;;;;;;;30.87;12.70;;;3.30;99.90;;;;;;4416865;28;657948;-69
2021/05/09 00:13:01;;;;;;;30.57;12.27;;;3.30;99.90;;;;;;4427826;28;657876;-69
2021/05/09 00:15:49;;;;;;;28.37;11.63;;;3.30;99.90;;;;;;4410208;28;657247;-69
2021/05/09 00:18:36;;;;;;;34.93;12.30;;;3.20;99.90;;;;;;4420138;28;658502;-69
2021/05/09 00:21:24;;;;;;;30.13;12.03;;;3.20;99.90;;;;;;4408519;28;657860;-69
2021/05/09 00:24:11;;;;;;;30.93;12.20;;;3.20;99.90;;;;;;4432775;28;657644;-69
2021/05/09 00:26:58;;;;;;;31.80;12.10;;;3.20;99.90;;;;;;4410002;28;658014;-69
2021/05/09 00:29:45;;;;;;;32.67;12.70;;;3.20;99.90;;;;;;4429929;28;658227;-69
2021/05/09 00:32:32;;;;;;;31.15;13.38;;;3.20;99.90;;;;;;4415620;28;658200;-70
2021/05/09 00:35:19;;;;;;;28.27;12.60;;;3.20;99.90;;;;;;4433560;28;657954;-69
2021/05/09 00:38:07;;;;;;;31.97;13.03;;;3.20;99.90;;;;;;4433048;28;657148;-69
2021/05/09 00:40:54;;;;;;;28.10;12.17;;;3.20;99.90;;;;;;4400238;28;658785;-69
2021/05/09 00:43:41;;;;;;;31.75;13.02;;;3.30;99.90;;;;;;4428261;28;658045;-69
2021/05/09 00:46:28;;;;;;;35.57;13.33;;;3.20;99.90;;;;;;4402660;28;657541;-69
2021/05/09 00:49:15;;;;;;;30.43;12.13;;;3.20;99.90;;;;;;4414853;28;658468;-69
2021/05/09 00:52:02;;;;;;;32.10;12.33;;;3.20;99.90;;;;;;4412941;28;657756;-69
2021/05/09 00:54:52;;;;;;;28.63;12.30;;;3.20;99.90;;;;;;4422617;28;657818;-69
2021/05/09 00:57:39;;;;;;;26.77;11.23;;;3.20;99.90;;;;;;4398256;28;658964;-69
2021/05/09 01:00:26;;;;;;;29.17;11.93;;;3.20;99.90;;;;;;4413013;28;657095;-69
2021/05/09 01:03:13;;;;;;;26.90;12.20;;;3.20;99.90;;;;;;4386650;28;657732;-70
2021/05/09 01:06:00;;;;;;;28.03;11.87;;;3.20;99.90;;;;;;4404925;28;658185;-69
2021/05/09 01:08:46;;;;;;;28.33;11.87;;;3.30;99.90;;;;;;4409308;28;657730;-69
2021/05/09 01:11:35;;;;;;;25.30;10.77;;;3.40;99.90;;;;;;4385533;28;658123;-69
2021/05/09 01:14:22;;;;;;;23.80;10.93;;;3.40;99.90;;;;;;4397008;28;657781;-69
2021/05/09 01:17:09;;;;;;;26.13;11.83;;;3.50;99.90;;;;;;4405304;28;657498;-69
2021/05/09 01:20:00;;;;;;;28.93;12.20;;;3.50;99.90;;;;;;4411450;28;657401;-69
2021/05/09 01:22:47;;;;;;;25.53;10.80;;;3.50;99.90;;;;;;4405578;28;657930;-69
2021/05/09 01:25:34;;;;;;;27.83;11.60;;;3.50;99.90;;;;;;4410802;28;657988;-69
2021/05/09 01:28:21;;;;;;;25.90;11.07;;;3.40;99.90;;;;;;4405953;28;658220;-69
2021/05/09 01:31:08;;;;;;;23.73;10.47;;;3.40;99.90;;;;;;4392072;28;658159;-70
2021/05/09 01:33:55;;;;;;;22.67;10.40;;;3.40;99.90;;;;;;4408762;28;658222;-69
2021/05/09 01:36:43;;;;;;;24.63;10.80;;;3.30;99.90;;;;;;4391671;28;657374;-69
2021/05/09 01:39:30;;;;;;;28.90;11.20;;;3.30;99.90;;;;;;4404704;28;658591;-70
2021/05/09 01:42:17;;;;;;;20.77;10.40;;;3.30;99.90;;;;;;4390276;28;658193;-69
2021/05/09 01:45:05;;;;;;;30.47;12.00;;;3.30;99.90;;;;;;4409461;28;657204;-69
2021/05/09 01:47:52;;;;;;;23.63;10.90;;;3.30;99.90;;;;;;4391871;28;657350;-69
2021/05/09 01:50:39;;;;;;;22.33;10.17;;;3.20;99.90;;;;;;4406421;28;657858;-69
2021/05/09 01:53:27;;;;;;;21.87;10.13;;;3.20;99.90;;;;;;4410566;28;657898;-69
2021/05/09 01:56:14;;;;;;;24.67;10.53;;;3.20;99.90;;;;;;4381826;28;659059;-69
2021/05/09 01:59:01;;;;;;;26.00;10.73;;;3.10;99.90;;;;;;4403637;28;657582;-69
2021/05/09 02:01:48;;;;;;;31.45;11.20;;;3.10;99.90;;;;;;4392547;28;657510;-69
2021/05/09 02:04:35;;;;;;;23.40;11.23;;;3.10;99.90;;;;;;4406937;28;657746;-69
2021/05/09 02:07:22;;;;;;;23.63;9.70;;;3.10;99.90;;;;;;4391798;28;657689;-69
2021/05/09 02:10:11;;;;;;;27.70;10.53;;;3.20;99.90;;;;;;4417113;28;656470;-69
2021/05/09 02:12:58;;;;;;;22.47;10.27;;;3.20;99.90;;;;;;4392064;28;657705;-69
2021/05/09 02:15:45;;;;;;;23.13;10.40;;;3.30;99.90;;;;;;4417069;28;658286;-70
2021/05/09 02:18:32;;;;;;;21.70;9.97;;;3.40;99.90;;;;;;4394848;28;657777;-69
2021/05/09 02:21:19;;;;;;;23.50;10.80;;;3.40;99.90;;;;;;4411115;28;656566;-69
2021/05/09 02:24:07;;;;;;;25.50;10.90;;;3.50;99.90;;;;;;4414051;28;657578;-69
2021/05/09 02:26:55;;;;;;;20.23;9.30;;;3.60;99.90;;;;;;4394670;28;658139;-69
2021/05/09 02:29:42;;;;;;;22.60;10.47;;;3.70;99.90;;;;;;4413364;28;656632;-69
2021/05/09 02:32:29;;;;;;;22.00;9.93;;;3.80;99.90;;;;;;4406408;28;657642;-70
2021/05/09 02:35:16;;;;;;;19.50;9.27;;;3.90;99.90;;;;;;4409040;28;657246;-69
2021/05/09 02:38:03;;;;;;;20.27;9.33;;;4.00;99.90;;;;;;4393259;28;656686;-69
2021/05/09 02:40:50;;;;;;;18.37;8.60;;;4.10;99.90;;;;;;4413876;28;657305;-69
2021/05/09 02:43:38;;;;;;;18.63;8.87;;;4.30;99.90;;;;;;4410606;28;657240;-69
2021/05/09 02:46:25;;;;;;;20.37;8.00;;;4.40;99.90;;;;;;4417794;28;657269;-69
2021/05/09 02:49:12;;;;;;;19.33;8.30;;;4.60;99.90;;;;;;4404057;28;656868;-70
2021/05/09 02:52:00;;;;;;;19.23;8.23;;;4.70;99.90;;;;;;4414993;28;656667;-69
2021/05/09 02:54:47;;;;;;;19.73;8.87;;;4.70;99.90;;;;;;4407341;28;656583;-70
2021/05/09 02:57:34;;;;;;;23.23;8.77;;;4.80;99.90;;;;;;4414710;28;656628;-70
2021/05/09 03:00:22;;;;;;;18.33;8.67;;;4.80;99.90;;;;;;4411835;28;656549;-70
2021/05/09 03:03:09;;;;;;;19.53;8.40;;;4.80;99.90;;;;;;4384775;28;657504;-70
2021/05/09 03:05:56;;;;;;;19.20;8.33;;;4.90;99.90;;;;;;4410114;28;656089;-70
2021/05/09 03:08:43;;;;;;;18.30;8.13;;;5.00;99.90;;;;;;4395035;28;656646;-70
2021/05/09 03:11:30;;;;;;;19.90;7.80;;;5.00;99.90;;;;;;4406581;28;657290;-69
2021/05/09 03:14:17;;;;;;;17.87;7.63;;;5.00;99.90;;;;;;4404943;28;657148;-70
2021/05/09 03:17:05;;;;;;;15.60;7.17;;;5.00;99.90;;;;;;4414681;28;657575;-70
2021/05/09 03:19:52;;;;;;;21.33;7.73;;;5.00;99.90;;;;;;4392327;28;656408;-69
2021/05/09 03:22:39;;;;;;;14.90;7.23;;;5.00;99.90;;;;;;4412806;28;656285;-69
2021/05/09 03:25:26;;;;;;;13.80;7.33;;;5.00;99.90;;;;;;4409700;28;656753;-69
2021/05/09 03:28:13;;;;;;;19.47;7.83;;;5.00;99.90;;;;;;4395121;28;656370;-70
2021/05/09 03:31:00;;;;;;;14.20;7.17;;;5.00;99.90;;;;;;4417881;28;657177;-70
2021/05/09 03:33:48;;;;;;;18.00;7.77;;;5.00;99.90;;;;;;4402426;28;657029;-70
2021/05/09 03:36:35;;;;;;;14.37;7.10;;;5.10;99.90;;;;;;4414402;28;656790;-69
2021/05/09 03:39:22;;;;;;;12.43;6.87;;;5.20;99.90;;;;;;4401694;28;656657;-70
2021/05/09 03:42:09;;;;;;;15.73;7.33;;;5.20;99.90;;;;;;4403115;28;656441;-69
2021/05/09 03:44:56;;;;;;;12.93;6.80;;;5.30;99.90;;;;;;4413164;28;656860;-70
2021/05/09 03:47:43;;;;;;;15.20;6.93;;;5.40;99.90;;;;;;4393947;28;656614;-70
2021/05/09 03:50:31;;;;;;;14.90;7.33;;;5.50;99.90;;;;;;4410479;28;656819;-70
2021/05/09 03:53:18;;;;;;;15.07;6.37;;;5.60;99.90;;;;;;4391532;28;656855;-70
2021/05/09 03:56:05;;;;;;;11.43;6.13;;;5.70;99.90;;;;;;4412400;28;657215;-70
2021/05/09 03:58:52;;;;;;;14.47;6.73;;;5.90;99.90;;;;;;4410373;28;656965;-70
2021/05/09 04:01:39;;;;;;;14.93;6.83;;;6.00;99.90;;;;;;4435298;28;657088;-70
2021/05/09 04:04:26;;;;;;;15.38;6.97;;;6.20;99.90;;;;;;4429360;28;657004;-70
2021/05/09 04:07:14;;;;;;;15.80;6.67;;;6.30;99.90;;;;;;4411267;28;657193;-70
2021/05/09 04:10:01;;;;;;;14.93;6.80;;;6.40;99.90;;;;;;4420728;28;657671;-70
2021/05/09 04:12:48;;;;;;;13.17;6.47;;;6.60;99.90;;;;;;4409781;28;656657;-70
2021/05/09 04:15:35;;;;;;;14.40;6.33;;;6.70;99.90;;;;;;4422657;28;657911;-70
2021/05/09 04:18:22;;;;;;;14.80;7.33;;;6.80;99.90;;;;;;4424104;28;656962;-70
2021/05/09 04:21:09;;;;;;;20.20;10.20;;;6.90;99.90;;;;;;4430778;28;656281;-70
2021/05/09 04:23:57;;;;;;;20.67;9.93;;;7.10;99.90;;;;;;4432874;28;657539;-70
2021/05/09 04:26:44;;;;;;;13.83;7.00;;;7.10;99.90;;;;;;4404132;28;657399;-70
2021/05/09 04:29:31;;;;;;;14.10;7.37;;;7.30;99.90;;;;;;4426527;28;657223;-70
2021/05/09 04:32:18;;;;;;;13.63;6.23;;;7.30;99.90;;;;;;4403835;28;656302;-70
2021/05/09 04:35:05;;;;;;;13.50;7.00;;;7.40;99.90;;;;;;4429891;28;657812;-70
2021/05/09 04:37:52;;;;;;;18.35;7.32;;;7.50;99.90;;;;;;4411492;28;656956;-70
2021/05/09 04:40:40;;;;;;;16.67;7.25;;;7.50;99.90;;;;;;4434590;28;656203;-70
2021/05/09 04:43:27;;;;;;;14.30;6.53;;;7.50;99.90;;;;;;4407223;28;656380;-70
2021/05/09 04:46:14;;;;;;;14.13;6.00;;;7.50;99.90;;;;;;4428221;28;656606;-70
2021/05/09 04:49:01;;;;;;;11.53;5.60;;;7.50;99.90;;;;;;4433804;28;656931;-71
2021/05/09 04:51:48;;;;;;;9.93;4.93;;;7.50;99.90;;;;;;4401859;28;656514;-70
2021/05/09 04:54:35;;;;;;;12.53;5.20;;;7.50;99.90;;;;;;4433875;28;656654;-70
2021/05/09 04:57:23;;;;;;;11.57;5.10;;;7.60;99.90;;;;;;4422488;28;656440;-70
2021/05/09 05:00:13;;;;;;;11.40;5.60;;;7.70;99.90;;;;;;4426500;28;656450;-70
2021/05/09 05:03:02;;;;;;;11.47;5.43;;;7.70;99.90;;;;;;4410105;28;656071;-70
2021/05/09 05:05:49;;;;;;;11.50;5.17;;;7.90;99.90;;;;;;4405314;28;657371;-70
2021/05/09 05:08:36;;;;;;;11.13;5.47;;;8.10;99.90;;;;;;4424036;28;656730;-70
2021/05/09 05:11:23;;;;;;;9.63;5.20;;;8.20;99.90;;;;;;4402410;28;656533;-70
2021/05/09 05:14:11;;;;;;;9.87;4.90;;;8.40;99.90;;;;;;4428034;28;656503;-70
2021/05/09 05:16:58;;;;;;;16.90;6.57;;;8.60;99.90;;;;;;4411710;28;656817;-70
2021/05/09 05:19:45;;;;;;;12.77;5.93;;;8.70;99.90;;;;;;4430225;28;657405;-70
2021/05/09 05:22:32;;;;;;;12.63;5.83;;;8.80;99.90;;;;;;4430310;28;656985;-70
2021/05/09 05:25:19;;;;;;;9.57;5.07;;;8.80;99.90;;;;;;4410744;28;657044;-71
2021/05/09 05:28:06;;;;;;;10.67;4.73;;;9.00;99.90;;;;;;4430640;28;656393;-70
2021/05/09 05:30:53;;;;;;;12.00;4.53;;;9.00;99.90;;;;;;4397240;28;656576;-70
2021/05/09 05:33:40;;;;;;;9.10;4.70;;;9.10;99.90;;;;;;4429834;28;657106;-70
2021/05/09 05:36:29;;;;;;;9.13;4.90;;;9.20;99.90;;;;;;4409173;28;655736;-70
2021/05/09 05:39:15;;;;;;;7.63;4.20;;;9.20;99.90;;;;;;4434555;28;656141;-70
2021/05/09 05:42:03;;;;;;;8.47;4.53;;;9.20;99.90;;;;;;4406445;28;655647;-70
2021/05/09 05:44:50;;;;;;;6.57;4.13;;;9.20;99.90;;;;;;4431097;28;656260;-70
2021/05/09 05:47:38;;;;;;;7.73;4.27;;;9.20;99.90;;;;;;4425176;28;655572;-70
2021/05/09 05:50:25;;;;;;;10.43;4.63;;;9.20;99.90;;;;;;4435461;28;656602;-70
2021/05/09 05:53:12;;;;;;;9.60;4.77;;;9.30;99.90;;;;;;4418172;28;656671;-70
2021/05/09 05:55:59;;;;;;;10.43;5.20;;;9.50;99.90;;;;;;4434233;28;656764;-70
2021/05/09 05:58:46;;;;;;;10.07;4.97;;;9.70;99.90;;;;;;4437047;28;655910;-71
2021/05/09 06:01:33;;;;;;;11.63;4.63;;;9.90;99.90;;;;;;4405156;28;656030;-70
2021/05/09 06:04:21;;;;;;;15.30;4.33;;;10.00;99.90;;;;;;4429707;28;657298;-70
2021/05/09 06:07:09;;;;;;;7.73;4.10;;;10.10;99.90;;;;;;4405026;28;657502;-71
2021/05/09 06:09:55;;;;;;;9.03;4.57;;;10.20;99.90;;;;;;4425173;28;656970;-70
2021/05/09 06:12:42;;;;;;;10.80;5.10;;;10.40;99.90;;;;;;4413943;28;657345;-70
2021/05/09 06:15:29;;;;;;;7.53;4.33;;;10.50;99.90;;;;;;4425038;28;658671;-71
2021/05/09 06:18:16;;;;;;;8.63;4.13;;;10.70;99.90;;;;;;4431110;28;657665;-69
2021/05/09 06:21:05;;;;;;;7.25;4.07;;;10.80;99.90;;;;;;4413640;28;656232;-69
2021/05/09 06:23:52;;;;;;;9.17;3.93;;;11.00;99.90;;;;;;4427655;28;656501;-68
2021/05/09 06:26:39;;;;;;;8.50;4.20;;;11.20;99.90;;;;;;4347103;28;656780;-75
2021/05/09 06:29:26;;;;;;;6.97;4.00;;;11.20;99.90;;;;;;4422385;28;656681;-75
2021/05/09 06:32:13;;;;;;;8.57;4.27;;;11.40;99.90;;;;;;4414267;28;656690;-75
2021/05/09 06:35:00;;;;;;;8.53;4.87;;;11.40;99.90;;;;;;4429462;28;657780;-75
2021/05/09 06:37:51;;;;;;;9.43;4.47;;;11.60;99.90;;;;;;4422123;28;656768;-72
2021/05/09 06:40:38;;;;;;;9.17;4.37;;;11.80;99.90;;;;;;4413650;28;656590;-75
2021/05/09 06:43:25;;;;;;;7.50;4.30;;;11.90;99.90;;;;;;4437301;28;658017;-75
2021/05/09 06:46:12;;;;;;;7.73;4.40;;;12.00;99.90;;;;;;4421882;28;656864;-71
2021/05/09 06:49:01;;;;;;;8.07;4.30;;;12.10;99.90;;;;;;4432564;28;656933;-76
2021/05/09 06:51:48;;;;;;;9.83;4.70;;;12.30;99.90;;;;;;4414017;28;657278;-74
2021/05/09 06:54:36;;;;;;;12.13;4.83;;;12.40;99.90;;;;;;4433211;28;658253;-76
2021/05/09 06:57:23;;;;;;;8.37;4.33;;;12.50;99.90;;;;;;4410966;28;657395;-75
2021/05/09 07:00:11;;;;;;;9.90;5.03;;;12.70;99.90;;;;;;4413671;28;657002;-75
2021/05/09 07:02:58;;;;;;;11.10;5.00;;;12.80;99.90;;;;;;4404948;28;656574;-74
2021/05/09 07:05:45;;;;;;;8.10;4.50;;;13.00;99.90;;;;;;4430581;28;659137;-74
2021/05/09 07:08:32;;;;;;;8.17;4.90;;;13.20;99.20;;;;;;4430079;28;656137;-72
2021/05/09 07:11:20;;;;;;;6.77;4.27;;;13.40;99.90;;;;;;4432363;28;656682;-74
2021/05/09 07:14:07;;;;;;;9.45;4.60;;;13.50;98.80;;;;;;4416870;28;656461;-71
2021/05/09 07:16:54;;;;;;;8.30;4.73;;;13.70;97.40;;;;;;4429668;28;657002;-75
2021/05/09 07:19:41;;;;;;;7.27;4.33;;;13.90;98.10;;;;;;4432431;28;656439;-74
2021/05/09 07:22:32;;;;;;;7.03;3.93;;;14.20;98.40;;;;;;4403276;28;656688;-75
2021/05/09 07:25:19;;;;;;;6.87;3.50;;;14.50;96.50;;;;;;4408862;28;658038;-74
2021/05/09 07:28:07;;;;;;;7.60;3.80;;;14.60;94.80;;;;;;4435479;28;656317;-75
2021/05/09 07:30:54;;;;;;;6.10;3.87;;;14.80;94.60;;;;;;4411103;28;657133;-76
2021/05/09 07:33:41;;;;;;;9.70;4.10;;;14.90;93.90;;;;;;4429025;28;657015;-76
2021/05/09 07:36:28;;;;;;;6.37;3.00;;;15.00;93.00;;;;;;4412517;28;657143;-73
2021/05/09 07:39:15;;;;;;;6.70;3.37;;;15.20;93.20;;;;;;4431600;28;657192;-76
2021/05/09 07:42:02;;;;;;;5.00;3.27;;;15.40;90.90;;;;;;4413093;28;656698;-73
2021/05/09 07:44:54;;;;;;;6.15;3.00;;;15.50;91.10;;;;;;4436078;28;656965;-74
2021/05/09 07:47:41;;;;;;;4.97;2.97;;;15.60;92.50;;;;;;4405018;28;656693;-74
2021/05/09 07:50:28;;;;;;;4.83;2.90;;;15.70;87.20;;;;;;4406596;28;656787;-74
2021/05/09 07:53:15;;;;;;;5.45;2.88;;;15.70;85.60;;;;;;4432759;28;657445;-75
2021/05/09 07:56:02;;;;;;;5.37;2.97;;;16.00;86.00;;;;;;4406603;28;656405;-72
2021/05/09 07:58:49;;;;;;;7.87;3.27;;;16.20;84.00;;;;;;4428608;28;656579;-71
2021/05/09 08:01:37;;;;;;;6.60;3.00;;;16.50;85.40;;;;;;4427899;28;655819;-71
2021/05/09 08:04:24;;;;;;;5.10;2.80;;;16.80;85.30;;;;;;4390838;28;656992;-70
2021/05/09 08:07:11;;;;;;;3.60;2.53;;;17.10;81.80;;;;;;4413433;28;656571;-71
2021/05/09 08:09:58;;;;;;;6.13;2.50;;;17.20;79.10;;;;;;4399091;28;657289;-71
2021/05/09 08:12:45;;;;;;;4.20;2.35;;;16.90;73.70;;;;;;4423576;28;657977;-71
2021/05/09 08:15:32;;;;;;;4.63;2.90;;;16.90;76.20;;;;;;4396893;28;656709;-70
2021/05/09 08:18:23;;;;;;;5.67;2.93;;;17.00;78.50;;;;;;4420192;28;657739;-70
2021/05/09 08:21:10;;;;;;;4.80;2.40;;;17.10;75.40;;;;;;4407647;28;657836;-72
2021/05/09 08:23:57;;;;;;;4.00;2.50;;;17.30;73.20;;;;;;4416627;28;656265;-71
2021/05/09 08:26:44;;;;;;;4.97;2.57;;;17.50;76.60;;;;;;4425161;28;656670;-71
2021/05/09 08:29:32;;;;;;;5.43;2.50;;;17.50;73.60;;;;;;4423972;28;656826;-72
2021/05/09 08:32:19;;;;;;;4.10;2.30;;;17.50;73.10;;;;;;4394778;28;657851;-71
2021/05/09 08:35:10;;;;;;;6.57;2.60;;;17.80;71.90;;;;;;4425045;28;656649;-71
2021/05/09 08:37:57;;;;;;;4.90;2.50;;;18.00;77.10;;;;;;4374907;28;656866;-71
2021/05/09 08:40:44;;;;;;;4.13;2.20;;;18.30;75.40;;;;;;4418018;28;656756;-71
2021/05/09 08:43:31;;;;;;;4.60;2.40;;;18.40;66.80;;;;;;4414198;28;657216;-70
2021/05/09 08:46:19;;;;;;;4.80;2.37;;;18.60;66.70;;;;;;4391512;28;656395;-71
2021/05/09 08:49:06;;;;;;;3.03;2.13;;;18.90;69.50;;;;;;4413102;28;656893;-71
2021/05/09 08:51:54;;;;;;;4.23;2.00;;;19.10;67.70;;;;;;4403798;28;657113;-72
2021/05/09 08:54:41;;;;;;;2.73;1.60;;;19.10;63.80;;;;;;4413579;28;656962;-73
2021/05/09 08:57:29;;;;;;;4.03;2.30;;;19.00;58.70;;;;;;4399967;28;657112;-74
2021/05/09 09:00:17;;;;;;;4.90;2.03;;;19.10;65.00;;;;;;4425722;28;657472;-71
2021/05/09 09:03:04;;;;;;;3.27;1.70;;;19.40;67.00;;;;;;4401729;28;656498;-75
2021/05/09 09:05:51;;;;;;;2.20;1.53;;;19.50;64.10;;;;;;4406641;28;656643;-73
2021/05/09 09:08:50;;;;;;;2.20;1.57;;;19.50;57.90;;;;;;4393938;28;656728;-73
2021/05/09 09:11:37;;;;;;;2.40;1.60;;;19.70;57.60;;;;;;4386071;28;657425;-71
2021/05/09 09:14:26;;;;;;;3.50;1.50;;;20.00;58.70;;;;;;4416491;28;656484;-71
2021/05/09 09:17:14;;;;;;;2.37;1.33;;;20.20;58.50;;;;;;4410043;28;656473;-73
2021/05/09 09:20:02;;;;;;;1.87;1.33;;;20.40;57.50;;;;;;4428269;28;656991;-71
2021/05/09 09:22:56;;;;;;;3.07;1.10;;;20.50;59.60;;;;;;4397128;28;656483;-71
2021/05/09 09:25:45;;;;;;;1.10;1.00;;;19.70;53.90;;;;;;4370007;28;657096;-71
2021/05/09 09:28:33;;;;;;;2.90;1.00;;;19.20;55.40;;;;;;4418814;28;656677;-74
2021/05/09 09:31:35;;;;;;;2.53;1.10;;;19.40;54.30;;;;;;4406469;28;657392;-74
2021/05/09 09:34:22;;;;;;;3.92;1.23;;;19.70;55.20;;;;;;4406635;28;656365;-72
2021/05/09 09:37:10;;;;;;;2.40;1.10;;;19.60;53.10;;;;;;4427293;28;657046;-72
2021/05/09 09:39:59;;;;;;;1.43;1.13;;;20.00;57.10;;;;;;4399445;28;657235;-70
2021/05/09 09:42:47;;;;;;;4.07;1.10;;;20.20;54.10;;;;;;4372612;28;656197;-71
2021/05/09 09:45:38;;;;;;;2.15;1.00;;;20.40;54.90;;;;;;4375756;28;656736;-71
2021/05/09 09:48:37;;;;;;;1.70;1.00;;;20.40;53.30;;;;;;4369212;28;657608;-73
2021/05/09 09:51:24;;;;;;;1.30;0.90;;;20.60;51.90;;;;;;4397837;28;656601;-74
2021/05/09 09:54:11;;;;;;;1.30;1.20;;;20.40;50.30;;;;;;4412994;28;657088;-71
2021/05/09 09:56:58;;;;;;;5.20;0.97;;;20.40;51.60;;;;;;4402257;28;657036;-72
2021/05/09 09:59:46;;;;;;;1.47;1.00;;;20.50;53.80;;;;;;4412261;28;657565;-71
2021/05/09 10:02:33;;;;;;;1.33;1.00;;;20.70;50.30;;;;;;4393213;28;656584;-73
2021/05/09 10:05:20;;;;;;;2.77;0.90;;;20.70;48.90;;;;;;4402211;28;657609;-73
2021/05/09 10:08:07;;;;;;;0.97;0.80;;;20.70;50.00;;;;;;4412742;28;656524;-73
2021/05/09 10:10:54;;;;;;;2.27;1.10;;;20.90;50.70;;;;;;4383791;28;657972;-71
2021/05/09 10:13:41;;;;;;;1.93;1.00;;;21.30;49.20;;;;;;4410773;28;656423;-72
2021/05/09 10:16:30;;;;;;;1.23;0.80;;;21.10;48.20;;;;;;4393512;28;656655;-74
2021/05/09 10:19:22;;;;;;;2.83;1.73;;;21.00;49.20;;;;;;4399198;28;657503;-72
2021/05/09 10:22:33;;;;;;;1.53;0.90;;;21.20;49.40;;;;;;4393666;28;657089;-73
2021/05/09 10:25:48;;;;;;;0.90;0.80;;;21.20;46.90;;;;;;4379098;28;656826;-73
2021/05/09 10:28:38;;;;;;;2.40;0.93;;;21.50;49.10;;;;;;4359241;28;657682;-74
2021/05/09 10:31:27;;;;;;;1.40;0.90;;;21.70;47.80;;;;;;4391720;28;657833;-73
2021/05/09 10:34:15;;;;;;;4.93;0.90;;;21.60;45.60;;;;;;4384793;28;657352;-71
2021/05/09 10:37:02;;;;;;;2.80;1.00;;;21.80;49.30;;;;;;4413526;28;656120;-70
2021/05/09 10:40:16;;;;;;;2.87;0.93;;;21.90;48.00;;;;;;4420926;28;656336;-72
2021/05/09 10:43:31;;;;;;;2.40;0.90;;;21.80;49.20;;;;;;4365507;28;657124;-70
2021/05/09 10:46:18;;;;;;;2.00;0.90;;;21.40;46.80;;;;;;4367805;28;656462;-73
2021/05/09 10:49:10;;;;;;;1.40;1.00;;;21.30;47.00;;;;;;4415687;28;656785;-74
2021/05/09 10:51:58;;;;;;;1.00;0.90;;;21.60;46.60;;;;;;4374415;28;656811;-70
2021/05/09 10:54:45;;;;;;;1.17;0.88;;;21.80;48.60;;;;;;4407007;28;657345;-74
2021/05/09 10:57:45;;;;;;;1.13;0.90;;;21.90;49.00;;;;;;4380640;28;656528;-71
2021/05/09 11:01:06;;;;;;;1.40;1.00;;;21.80;46.40;;;;;;4360585;28;656580;-70
2021/05/09 11:03:54;;;;;;;2.07;0.97;;;21.60;47.90;;;;;;4373008;28;657329;-73
2021/05/09 11:06:46;;;;;;;2.57;1.00;;;21.80;50.60;;;;;;4416600;28;656270;-73
2021/05/09 11:09:39;;;;;;;2.63;1.20;;;22.10;47.70;;;;;;4370213;28;656995;-73
2021/05/09 11:12:27;;;;;;;1.60;1.10;;;22.50;48.10;;;;;;4392867;28;656765;-71
2021/05/09 11:15:14;;;;;;;4.67;1.43;;;23.00;47.10;;;;;;4387194;28;657496;-74
2021/05/09 11:18:01;;;;;;;4.30;1.00;;;22.70;46.30;;;;;;4414917;28;656212;-73
2021/05/09 11:20:52;;;;;;;3.60;1.20;;;23.00;48.50;;;;;;4391326;28;656257;-71
2021/05/09 11:23:40;;;;;;;3.17;1.20;;;23.30;50.80;;;;;;4391976;28;658068;-74
2021/05/09 11:26:29;;;;;;;2.53;0.90;;;23.30;46.80;;;;;;4401543;28;656729;-70
2021/05/09 11:29:17;;;;;;;3.40;1.20;;;23.20;46.10;;;;;;4416217;28;657180;-71
2021/05/09 11:32:11;;;;;;;2.03;1.00;;;23.30;48.70;;;;;;4379835;28;658076;-70
2021/05/09 11:35:00;;;;;;;3.20;1.23;;;23.40;47.70;;;;;;4369463;28;657527;-74
2021/05/09 11:37:47;;;;;;;1.90;0.90;;;23.20;45.50;;;;;;4391030;28;656698;-71
2021/05/09 11:40:34;;;;;;;212.20;133.50;;;23.00;45.50;;;;;;4410388;28;657409;-73
2021/05/09 11:43:22;;;;;;;6.50;2.97;;;23.20;48.20;;;;;;4409481;28;660497;-71
2021/05/09 11:46:17;;;;;;;385.97;281.87;;;23.30;45.80;;;;;;4396135;28;656530;-71
2021/05/09 11:49:17;;;;;;;4.23;2.23;;;23.30;47.40;;;;;;4383472;28;660904;-71
2021/05/09 11:52:06;;;;;;;1.70;1.30;;;23.40;46.70;;;;;;4367311;28;657373;-71
2021/05/09 11:54:53;;;;;;;0.83;0.83;;;23.20;46.60;;;;;;4396232;28;656844;-71
2021/05/09 11:57:40;;;;;;;1.43;1.17;;;23.00;44.80;;;;;;4414609;28;657054;-70
2021/05/09 12:00:28;;;;;;;2.00;1.13;;;23.20;45.40;;;;;;4413184;28;657121;-72
2021/05/09 12:03:22;;;;;;;1.93;1.00;;;23.00;45.90;;;;;;4425379;28;657111;-71
2021/05/09 12:06:10;;;;;;;3.10;1.47;;;23.00;46.50;;;;;;4380661;28;656913;-71
2021/05/09 12:08:57;;;;;;;1.60;1.37;;;23.10;46.70;;;;;;4428793;28;656717;-71
2021/05/09 12:11:44;;;;;;;1.97;1.67;;;23.50;46.80;;;;;;4432165;28;656365;-74
2021/05/09 12:14:31;;;;;;;3.37;1.43;;;23.40;46.60;;;;;;4428920;28;656118;-71
2021/05/09 12:17:19;;;;;;;91.27;55.07;;;23.40;45.50;;;;;;4411705;28;656817;-71
2021/05/09 12:20:07;;;;;;;3.97;1.60;;;23.00;49.30;;;;;;4429437;28;658348;-70
2021/05/09 12:22:55;;;;;;;55.57;32.60;;;23.20;47.50;;;;;;4410332;28;656753;-70
2021/05/09 12:25:43;;;;;;;164.77;94.80;;;23.20;47.50;;;;;;4429691;28;658686;-71
2021/05/09 12:28:30;;;;;;;4.37;3.10;;;23.50;46.50;;;;;;4405559;28;660970;-70
2021/05/09 12:31:19;;;;;;;1.83;1.20;;;23.70;47.90;;;;;;4413114;28;657031;-70
2021/05/09 12:34:07;;;;;;;4.53;1.00;;;23.80;44.80;;;;;;4420016;28;656844;-72
2021/05/09 12:37:08;;;;;;;2.93;1.83;;;24.10;45.50;;;;;;4409944;28;657810;-72
2021/05/09 12:40:16;;;;;;;1.57;1.10;;;24.50;45.80;;;;;;4403247;28;656978;-70
2021/05/09 12:43:05;;;;;;;1.90;0.90;;;24.50;45.80;;;;;;4384872;28;656885;-70
2021/05/09 12:45:52;;;;;;;1.10;1.00;;;24.50;44.60;;;;;;4416779;28;656865;-70
2021/05/09 12:48:39;;;;;;;2.70;1.20;;;24.60;47.90;;;;;;4431125;28;657250;-70
2021/05/09 12:51:27;;;;;;;1.03;0.87;;;24.60;45.80;;;;;;4426961;28;656570;-71
2021/05/09 12:54:30;;;;;;;3.40;1.00;;;25.00;48.60;;;;;;4400003;28;657322;-70
2021/05/09 12:57:18;;;;;;;0.88;0.88;;;24.90;47.20;;;;;;4406764;28;656782;-71
2021/05/09 13:00:09;;;;;;;0.93;0.80;;;25.20;48.40;;;;;;4430529;28;656528;-71
2021/05/09 13:02:56;;;;;;;1.55;1.27;;;25.30;47.40;;;;;;4401879;28;656378;-72
2021/05/09 13:05:43;;;;;;;3.57;1.07;;;25.10;45.30;;;;;;4403464;28;656471;-70
2021/05/09 13:08:31;;;;;;;5.10;1.23;;;25.00;47.00;;;;;;4431186;28;657658;-71
2021/05/09 13:11:18;;;;;;;1.17;1.00;;;24.80;45.20;;;;;;4412062;28;656990;-72
2021/05/09 13:14:05;;;;;;;3.13;1.23;;;24.70;45.10;;;;;;4431179;28;656876;-71
2021/05/09 13:16:52;;;;;;;1.47;0.93;;;24.80;45.30;;;;;;4412578;28;658412;-73
2021/05/09 13:19:39;;;;;;;2.73;0.87;;;25.00;46.80;;;;;;4431220;28;656838;-72
2021/05/09 13:22:26;;;;;;;4.43;1.03;;;24.70;44.60;;;;;;4430719;28;656686;-71
2021/05/09 13:25:16;;;;;;;1.50;1.00;;;24.90;47.30;;;;;;4412055;28;656344;-71
2021/05/09 13:28:04;;;;;;;1.70;1.10;;;25.10;45.40;;;;;;4408780;28;656776;-71
2021/05/09 13:30:51;;;;;;;1.40;0.90;;;25.20;46.30;;;;;;4423704;28;657521;-73
2021/05/09 13:33:38;;;;;;;4.37;1.07;;;25.20;46.00;;;;;;4405816;28;656381;-71
2021/05/09 13:36:25;;;;;;;3.58;0.98;;;25.20;45.40;;;;;;4430846;28;658028;-74
2021/05/09 13:39:12;;;;;;;1.20;0.90;;;25.00;43.00;;;;;;4421352;28;657052;-71
2021/05/09 13:42:01;;;;;;;1.75;0.85;;;25.20;45.40;;;;;;4435039;28;656272;-72
2021/05/09 13:44:48;;;;;;;2.80;1.05;;;25.30;47.50;;;;;;4411989;28;656708;-73
2021/05/09 13:47:35;;;;;;;1.30;0.90;;;25.50;45.60;;;;;;4418864;28;657872;-72
2021/05/09 13:50:22;;;;;;;3.22;0.82;;;25.30;44.40;;;;;;4415414;28;656529;-71
2021/05/09 13:53:09;;;;;;;0.85;0.80;;;25.40;45.70;;;;;;4428998;28;657003;-72
2021/05/09 13:55:56;;;;;;;1.42;1.00;;;25.60;45.30;;;;;;4430083;28;656645;-71
2021/05/09 13:58:45;;;;;;;2.55;0.90;;;25.90;46.20;;;;;;4405103;28;656965;-70
2021/05/09 14:01:32;;;;;;;1.60;0.98;;;25.80;46.20;;;;;;4413039;28;656470;-71
2021/05/09 14:04:19;;;;;;;1.33;1.00;;;26.20;45.80;;;;;;4387463;28;656509;-73
2021/05/09 14:07:06;;;;;;;0.77;0.77;;;26.00;43.50;;;;;;4407580;28;657783;-71
2021/05/09 14:09:53;;;;;;;1.70;1.00;;;26.00;45.00;;;;;;4386219;28;657143;-71
2021/05/09 14:12:40;;;;;;;1.00;0.90;;;26.30;44.30;;;;;;4416580;28;657151;-72
2021/05/09 14:15:27;;;;;;;2.50;1.60;;;26.70;43.70;;;;;;4416131;28;656552;-71
2021/05/09 14:18:14;;;;;;;1.10;0.90;;;26.90;44.80;;;;;;4386124;28;657328;-74
2021/05/09 14:21:01;;;;;;;1.00;0.80;;;26.70;41.00;;;;;;4411249;28;656617;-71
2021/05/09 14:23:48;;;;;;;3.35;1.08;;;26.60;44.90;;;;;;4393971;28;656778;-71